Time;durP1;ratioP1;P1;durP2;ratioP2;P2;SDS_P1;SDS_P2;PMS_P1;PMS_P2;Temp;Humidity;BMP_temperature;BMP_pressure;BME280_temperature;BME280_humidity;BME280_pressure;Samples;Min_cycle;Max_cycle;Signal;HPM_P1;HPM_P2
2022/05/08 00:01:35;;;;;;;34.07;32.00;;;12.30;82.60;;;;;;5130767;27;20481;-73
2022/05/08 00:04:02;;;;;;;34.20;32.10;;;12.20;83.20;;;;;;5130305;27;20479;-73
2022/05/08 00:06:29;;;;;;;35.57;33.17;;;12.20;83.50;;;;;;5133878;27;20546;-73
2022/05/08 00:08:56;;;;;;;35.20;33.07;;;12.30;83.50;;;;;;5145933;27;20451;-73
2022/05/08 00:11:23;;;;;;;35.43;33.13;;;12.30;83.40;;;;;;5144476;27;20463;-73
2022/05/08 00:13:50;;;;;;;36.43;34.03;;;12.30;83.40;;;;;;5129408;27;20507;-73
2022/05/08 00:16:16;;;;;;;36.17;33.87;;;12.20;83.60;;;;;;5136928;27;20456;-73
2022/05/08 00:18:45;;;;;;;36.10;33.80;;;12.20;83.70;;;;;;5135977;27;20483;-74
2022/05/08 00:21:12;;;;;;;35.90;33.40;;;12.10;83.90;;;;;;5133436;27;20968;-73
2022/05/08 00:23:38;;;;;;;35.17;32.90;;;12.10;84.20;;;;;;5131049;27;20483;-73
2022/05/08 00:26:08;;;;;;;35.40;33.20;;;12.10;84.30;;;;;;5129434;27;20543;-73
2022/05/08 00:28:35;;;;;;;36.27;33.60;;;12.10;84.30;;;;;;5134748;27;20463;-73
2022/05/08 00:31:02;;;;;;;35.80;33.50;;;12.10;84.10;;;;;;5131789;27;20607;-74
2022/05/08 00:33:29;;;;;;;35.90;33.70;;;12.20;83.80;;;;;;5129198;27;20475;-73
2022/05/08 00:35:57;;;;;;;34.83;32.53;;;12.10;83.70;;;;;;5134233;27;20439;-74
2022/05/08 00:38:24;;;;;;;35.43;33.03;;;12.00;84.10;;;;;;5132107;27;20976;-74
2022/05/08 00:40:51;;;;;;;37.93;35.27;;;11.90;84.40;;;;;;5143153;27;20447;-74
2022/05/08 00:43:28;;;;;;;35.40;33.30;;;11.90;84.80;;;;;;5135405;27;20566;-73
2022/05/08 00:45:55;;;;;;;35.97;33.20;;;12.00;84.90;;;;;;5133435;27;20462;-73
2022/05/08 00:48:22;;;;;;;36.10;33.60;;;11.80;85.50;;;;;;5134096;27;20466;-73
2022/05/08 00:50:51;;;;;;;36.13;33.80;;;11.70;85.80;;;;;;5130783;27;20482;-73
2022/05/08 00:53:19;;;;;;;34.77;32.50;;;11.60;86.30;;;;;;5133920;27;20447;-73
2022/05/08 00:55:46;;;;;;;35.10;32.70;;;11.60;86.40;;;;;;5145503;27;20454;-73
2022/05/08 00:58:15;;;;;;;35.83;33.53;;;11.50;86.60;;;;;;5140036;27;20567;-74
2022/05/08 01:00:42;;;;;;;35.33;32.97;;;11.50;86.60;;;;;;5134525;27;20539;-74
2022/05/08 01:03:09;;;;;;;37.43;35.03;;;11.50;86.60;;;;;;5134902;27;20490;-73
2022/05/08 01:05:41;;;;;;;36.73;34.40;;;11.60;87.00;;;;;;5143127;27;20971;-73
2022/05/08 01:08:08;;;;;;;34.93;32.63;;;11.50;86.80;;;;;;5149107;27;20843;-74
2022/05/08 01:10:38;;;;;;;34.60;32.07;;;11.50;86.90;;;;;;5132928;27;20471;-73
2022/05/08 01:13:05;;;;;;;35.73;33.40;;;11.50;86.60;;;;;;5143008;27;20458;-73
2022/05/08 01:15:41;;;;;;;36.07;33.63;;;11.50;86.50;;;;;;5139337;27;20538;-73
2022/05/08 01:18:08;;;;;;;34.47;32.20;;;11.50;86.40;;;;;;5133431;27;20461;-73
2022/05/08 01:20:35;;;;;;;37.90;34.83;;;11.40;86.90;;;;;;5132196;27;20456;-73
2022/05/08 01:23:04;;;;;;;36.77;34.37;;;11.40;87.30;;;;;;5147894;27;20458;-73
2022/05/08 01:25:31;;;;;;;35.80;33.50;;;11.40;87.70;;;;;;5132644;27;20473;-73
2022/05/08 01:27:58;;;;;;;36.50;33.97;;;11.40;87.70;;;;;;5137608;27;20459;-73
2022/05/08 01:30:25;;;;;;;36.90;33.83;;;11.40;87.40;;;;;;5136747;27;20532;-73
2022/05/08 01:32:53;;;;;;;36.33;33.70;;;11.40;87.40;;;;;;5139377;27;20472;-73
2022/05/08 01:35:20;;;;;;;37.83;35.17;;;11.50;86.90;;;;;;5143022;27;20479;-73
2022/05/08 01:37:47;;;;;;;36.27;33.77;;;11.50;86.60;;;;;;5142048;27;20451;-73
2022/05/08 01:40:19;;;;;;;36.80;34.30;;;11.50;86.70;;;;;;5140921;27;20455;-73
2022/05/08 01:42:46;;;;;;;36.60;33.90;;;11.40;87.10;;;;;;5133336;27;20451;-73
2022/05/08 01:45:13;;;;;;;37.43;34.77;;;11.30;87.60;;;;;;5131306;27;20480;-73
2022/05/08 01:50:25;;;;;;;37.50;35.00;;;11.20;88.00;;;;;;5131752;27;20485;-74
2022/05/08 01:52:52;;;;;;;35.70;33.20;;;11.20;88.20;;;;;;5132910;27;20455;-73
2022/05/08 01:55:20;;;;;;;35.50;33.10;;;11.20;88.30;;;;;;5138250;27;20570;-73
2022/05/08 01:57:47;;;;;;;36.37;33.87;;;11.30;88.10;;;;;;5142117;27;20460;-73
2022/05/08 02:00:15;;;;;;;36.10;33.70;;;11.30;87.70;;;;;;5136766;27;20939;-73
2022/05/08 02:02:43;;;;;;;36.77;33.97;;;11.30;87.50;;;;;;5131797;27;20547;-73
2022/05/08 02:05:10;;;;;;;36.63;33.87;;;11.30;87.60;;;;;;5145853;27;20527;-74
2022/05/08 02:07:37;;;;;;;36.63;34.10;;;11.20;87.80;;;;;;5138954;27;20524;-73
2022/05/08 02:10:05;;;;;;;37.30;34.90;;;11.20;88.10;;;;;;5130980;27;20474;-73
2022/05/08 02:12:33;;;;;;;35.57;33.07;;;11.10;88.40;;;;;;5134751;27;20490;-73
2022/05/08 02:15:00;;;;;;;37.33;34.83;;;11.10;88.70;;;;;;5148801;27;20475;-73
2022/05/08 02:17:27;;;;;;;40.03;37.13;;;11.00;89.00;;;;;;5146539;27;20975;-73
2022/05/08 02:19:54;;;;;;;38.27;35.60;;;11.00;89.20;;;;;;5139067;27;20672;-73
2022/05/08 02:22:21;;;;;;;37.47;35.07;;;11.10;89.00;;;;;;5142629;27;20467;-73
2022/05/08 02:24:47;;;;;;;38.20;35.27;;;11.00;89.10;;;;;;5132464;27;20490;-73
2022/05/08 02:27:14;;;;;;;37.50;35.00;;;11.00;89.40;;;;;;5148184;27;20493;-73
2022/05/08 02:29:42;;;;;;;37.33;34.83;;;11.00;89.50;;;;;;5150564;27;20534;-73
2022/05/08 02:32:10;;;;;;;37.67;35.17;;;11.00;89.60;;;;;;5141269;27;20671;-73
2022/05/08 02:34:37;;;;;;;37.80;35.03;;;11.10;89.50;;;;;;5132150;27;20810;-73
2022/05/08 02:37:04;;;;;;;39.10;36.20;;;11.10;89.40;;;;;;5138979;27;20823;-73
2022/05/08 02:39:31;;;;;;;37.37;34.97;;;11.10;89.30;;;;;;5130617;27;20459;-73
2022/05/08 02:41:58;;;;;;;38.83;36.23;;;11.10;89.40;;;;;;5130331;27;20832;-73
2022/05/08 02:44:25;;;;;;;38.87;36.17;;;11.00;89.60;;;;;;5131092;27;20467;-73
2022/05/08 02:46:53;;;;;;;39.57;36.97;;;11.00;89.80;;;;;;5133437;27;20462;-73
2022/05/08 02:49:20;;;;;;;38.90;36.20;;;11.10;89.30;;;;;;5140102;27;20801;-73
2022/05/08 02:51:47;;;;;;;37.60;35.10;;;11.10;89.00;;;;;;5135868;27;20979;-73
2022/05/08 02:54:14;;;;;;;36.67;34.27;;;11.10;88.70;;;;;;5131071;27;20894;-74
2022/05/08 02:59:25;;;;;;;38.27;35.67;;;11.00;88.70;;;;;;5143337;27;20554;-74
2022/05/08 03:01:54;;;;;;;37.43;35.03;;;11.00;88.90;;;;;;5136982;27;20501;-72
2022/05/08 03:04:20;;;;;;;37.60;35.17;;;11.00;88.80;;;;;;5139339;27;20475;-70
2022/05/08 03:06:47;;;;;;;36.90;34.23;;;11.00;88.80;;;;;;5151890;27;20507;-75
2022/05/08 03:09:14;;;;;;;38.80;35.83;;;10.90;88.90;;;;;;5139774;27;20836;-74
2022/05/08 03:11:41;;;;;;;37.13;34.63;;;10.90;88.90;;;;;;5142007;27;20468;-74
2022/05/08 03:14:09;;;;;;;37.27;34.80;;;10.80;89.10;;;;;;5134260;27;20479;-74
2022/05/08 03:16:37;;;;;;;37.53;34.93;;;10.80;89.30;;;;;;5145539;27;20459;-73
2022/05/08 03:19:05;;;;;;;38.13;35.43;;;10.70;89.50;;;;;;5130701;27;20835;-73
2022/05/08 03:21:34;;;;;;;38.40;35.90;;;10.70;89.90;;;;;;5132361;27;21831;-73
2022/05/08 03:24:01;;;;;;;37.90;35.30;;;10.60;90.20;;;;;;5139359;27;20478;-73
2022/05/08 03:26:28;;;;;;;38.10;35.50;;;10.60;90.20;;;;;;5137221;27;20653;-74
2022/05/08 03:28:55;;;;;;;39.80;37.15;;;10.60;90.00;;;;;;5145833;27;20586;-73
2022/05/08 03:31:22;;;;;;;38.47;35.80;;;10.60;90.40;;;;;;5131809;27;20209;-74
2022/05/08 03:33:49;;;;;;;38.63;35.83;;;10.60;91.20;;;;;;5140026;27;20532;-73
2022/05/08 03:36:18;;;;;;;38.23;35.63;;;10.60;91.30;;;;;;5136930;27;20768;-74
2022/05/08 03:38:46;;;;;;;39.10;36.17;;;10.60;90.80;;;;;;5140606;27;20992;-75
2022/05/08 03:41:15;;;;;;;36.30;34.00;;;10.60;90.50;;;;;;5142604;27;20457;-73
2022/05/08 03:43:42;;;;;;;39.67;36.87;;;10.50;90.50;;;;;;5138942;27;20574;-73
2022/05/08 03:46:09;;;;;;;38.53;35.93;;;10.60;90.50;;;;;;5137118;27;20471;-73
2022/05/08 03:48:36;;;;;;;38.70;36.00;;;10.70;89.90;;;;;;5138845;27;20459;-73
2022/05/08 03:51:04;;;;;;;37.93;35.33;;;10.70;89.40;;;;;;5132723;27;20482;-73
2022/05/08 03:53:32;;;;;;;37.88;35.22;;;10.70;89.70;;;;;;5130536;27;20468;-73
2022/05/08 03:55:59;;;;;;;38.17;35.58;;;10.70;89.60;;;;;;5129429;27;20205;-73
2022/05/08 03:58:26;;;;;;;37.93;35.13;;;10.60;89.50;;;;;;5130790;27;20201;-73
2022/05/08 04:00:53;;;;;;;37.30;34.80;;;10.60;89.40;;;;;;5131833;27;20448;-73
2022/05/08 04:03:22;;;;;;;37.47;34.83;;;10.60;89.30;;;;;;5130060;27;20229;-73
2022/05/08 04:05:49;;;;;;;38.80;36.00;;;10.60;89.50;;;;;;5149095;27;20470;-74
2022/05/08 04:08:16;;;;;;;36.67;34.00;;;10.50;89.70;;;;;;5148536;27;20212;-73
2022/05/08 04:10:45;;;;;;;39.78;36.90;;;10.50;89.80;;;;;;5149043;27;20317;-73
2022/05/08 04:13:12;;;;;;;39.57;36.60;;;10.60;89.80;;;;;;5134002;27;20662;-73
2022/05/08 04:18:23;;;;;;;38.07;35.53;;;10.70;89.60;;;;;;5138324;27;20543;-73
2022/05/08 04:20:50;;;;;;;37.87;35.27;;;10.70;89.30;;;;;;5138919;27;20443;-73
2022/05/08 04:26:03;;;;;;;37.63;34.93;;;10.70;89.00;;;;;;5129864;27;20963;-73
2022/05/08 04:28:30;;;;;;;36.53;34.13;;;10.70;88.80;;;;;;5132323;27;20467;-74
2022/05/08 04:30:57;;;;;;;38.83;36.13;;;10.70;88.80;;;;;;5137680;27;20481;-74
2022/05/08 04:33:24;;;;;;;37.97;35.27;;;10.70;89.00;;;;;;5136329;27;20475;-73
2022/05/08 04:35:51;;;;;;;38.50;35.90;;;10.70;89.00;;;;;;5128997;27;20448;-75
2022/05/08 04:38:21;;;;;;;36.73;34.27;;;10.70;89.10;;;;;;5129263;27;20459;-76
2022/05/08 04:40:48;;;;;;;37.47;34.70;;;10.70;89.10;;;;;;5128624;27;20960;-78
2022/05/08 04:43:16;;;;;;;38.23;35.43;;;10.70;89.00;;;;;;5142719;27;20531;-77
2022/05/08 04:45:43;;;;;;;37.30;34.43;;;10.70;88.60;;;;;;5141371;27;20459;-79
2022/05/08 04:48:10;;;;;;;38.47;35.67;;;10.70;88.70;;;;;;5145677;27;20554;-74
2022/05/08 04:50:37;;;;;;;37.37;34.87;;;10.80;88.40;;;;;;5132225;27;20810;-76
2022/05/08 04:53:04;;;;;;;37.87;35.37;;;10.80;88.00;;;;;;5134007;27;20956;-76
2022/05/08 04:55:39;;;;;;;38.70;35.80;;;10.80;88.10;;;;;;5129352;27;20504;-78
2022/05/08 04:58:06;;;;;;;37.60;35.10;;;10.90;88.10;;;;;;5149263;27;21203;-78
2022/05/08 05:00:41;;;;;;;37.70;35.00;;;10.80;88.30;;;;;;5149750;27;20538;-79
2022/05/08 05:03:08;;;;;;;38.20;35.40;;;10.90;88.30;;;;;;5140885;27;20455;-81
2022/05/08 05:05:35;;;;;;;36.40;33.80;;;10.90;88.20;;;;;;5150512;27;20486;-78
2022/05/08 05:08:02;;;;;;;38.77;36.07;;;11.00;87.90;;;;;;5149631;27;20459;-83
2022/05/08 05:10:29;;;;;;;36.50;34.03;;;11.10;87.60;;;;;;5135974;27;20557;-80
2022/05/08 05:12:55;;;;;;;37.20;34.60;;;11.10;87.20;;;;;;5141664;27;20555;-85
2022/05/08 05:15:24;;;;;;;37.60;35.10;;;11.20;87.00;;;;;;5143279;27;21083;-78
2022/05/08 05:17:52;;;;;;;37.83;35.37;;;11.20;86.80;;;;;;5137050;27;20531;-76
2022/05/08 05:20:22;;;;;;;37.60;34.90;;;11.20;86.70;;;;;;5128455;27;20452;-76
2022/05/08 05:22:48;;;;;;;37.97;35.27;;;11.30;86.40;;;;;;5130056;27;20524;-78
2022/05/08 05:25:15;;;;;;;37.70;35.10;;;11.30;86.00;;;;;;5143673;27;20491;-76
2022/05/08 05:27:42;;;;;;;38.63;35.83;;;11.30;86.30;;;;;;5147073;27;20531;-76
2022/05/08 05:30:10;;;;;;;39.77;37.03;;;11.30;86.20;;;;;;5149144;27;20955;-78
2022/05/08 05:32:39;;;;;;;38.80;36.03;;;11.20;86.40;;;;;;5131500;27;20500;-76
2022/05/08 05:35:08;;;;;;;39.23;36.57;;;11.20;86.80;;;;;;5133047;27;20475;-75
2022/05/08 05:37:36;;;;;;;39.40;36.60;;;11.20;87.00;;;;;;5136359;27;20550;-74
2022/05/08 05:40:03;;;;;;;37.07;34.57;;;11.30;87.00;;;;;;5142603;27;20460;-75
2022/05/08 05:42:32;;;;;;;38.27;35.57;;;11.40;87.00;;;;;;5133463;27;20451;-73
2022/05/08 05:45:00;;;;;;;36.20;33.80;;;11.50;86.80;;;;;;5132598;27;20559;-75
2022/05/08 05:50:18;;;;;;;38.27;35.63;;;11.60;86.70;;;;;;5125581;27;20568;-74
2022/05/08 05:52:46;;;;;;;37.60;35.00;;;11.70;86.50;;;;;;5151320;27;20510;-75
2022/05/08 05:55:13;;;;;;;37.70;35.20;;;12.00;85.40;;;;;;5150781;27;20827;-75
2022/05/08 05:57:40;;;;;;;36.70;34.30;;;12.10;84.70;;;;;;5153154;27;20469;-74
2022/05/08 06:00:10;;;;;;;38.15;35.35;;;12.10;84.90;;;;;;5146038;27;20466;-75
2022/05/08 06:02:37;;;;;;;38.40;35.50;;;12.30;84.30;;;;;;5140004;27;20190;-74
2022/05/08 06:05:06;;;;;;;39.03;36.03;;;12.30;84.00;;;;;;5136777;27;20476;-74
2022/05/08 06:07:34;;;;;;;39.90;37.03;;;12.40;84.00;;;;;;5132297;27;20458;-74
2022/05/08 06:10:01;;;;;;;38.63;36.10;;;12.50;83.90;;;;;;5142548;27;20458;-74
2022/05/08 06:12:28;;;;;;;38.60;36.20;;;12.70;83.30;;;;;;5141713;27;20481;-74
2022/05/08 06:14:55;;;;;;;38.73;36.27;;;12.70;83.00;;;;;;5138948;27;20474;-74
2022/05/08 06:17:25;;;;;;;40.03;37.43;;;12.70;82.80;;;;;;5146721;27;20455;-74
2022/05/08 06:19:52;;;;;;;38.87;36.10;;;12.60;83.00;;;;;;5135834;27;20490;-74
2022/05/08 06:22:22;;;;;;;37.97;35.43;;;12.70;83.30;;;;;;5135711;27;20960;-74
2022/05/08 06:24:50;;;;;;;38.40;35.80;;;12.70;82.90;;;;;;5145704;27;20499;-74
2022/05/08 06:27:18;;;;;;;40.33;37.47;;;12.80;83.00;;;;;;5147469;27;21347;-74
2022/05/08 06:29:45;;;;;;;40.73;37.93;;;13.00;82.30;;;;;;5143898;27;20549;-74
2022/05/08 06:32:14;;;;;;;39.20;36.47;;;13.20;81.80;;;;;;5139171;27;20493;-75
2022/05/08 06:34:42;;;;;;;39.40;36.60;;;13.30;81.60;;;;;;5142873;27;20479;-74
2022/05/08 06:37:16;;;;;;;38.97;36.40;;;13.40;81.50;;;;;;5142670;27;20462;-74
2022/05/08 06:39:46;;;;;;;40.77;37.97;;;13.20;81.80;;;;;;5149939;27;20446;-75
2022/05/08 06:42:15;;;;;;;39.40;36.70;;;13.30;81.80;;;;;;5136053;27;20466;-74
2022/05/08 06:44:43;;;;;;;41.07;38.27;;;13.50;81.70;;;;;;5144217;27;20479;-74
2022/05/08 06:47:10;;;;;;;39.63;36.93;;;13.60;81.00;;;;;;5136366;27;20784;-74
2022/05/08 06:49:37;;;;;;;41.90;39.00;;;13.70;80.90;;;;;;5144204;27;20952;-74
2022/05/08 06:52:04;;;;;;;40.80;38.00;;;13.90;80.50;;;;;;5143741;27;20573;-74
2022/05/08 06:54:31;;;;;;;40.03;37.13;;;14.10;79.70;;;;;;5140793;27;21013;-74
2022/05/08 06:56:59;;;;;;;40.53;37.73;;;14.20;79.30;;;;;;5143488;27;20454;-74
2022/05/08 07:02:12;;;;;;;41.77;38.67;;;14.30;78.80;;;;;;5145324;27;20955;-74
2022/05/08 07:04:41;;;;;;;41.63;38.67;;;14.50;78.80;;;;;;5142709;27;20569;-74
2022/05/08 07:07:08;;;;;;;41.30;38.47;;;14.60;78.50;;;;;;5143505;27;20528;-74
2022/05/08 07:09:35;;;;;;;42.87;39.80;;;14.70;78.00;;;;;;5135269;27;20467;-74
2022/05/08 07:12:03;;;;;;;41.67;38.77;;;14.90;77.60;;;;;;5139349;27;20497;-74
2022/05/08 07:14:31;;;;;;;42.30;39.57;;;15.00;77.00;;;;;;5147978;27;20477;-74
2022/05/08 07:16:58;;;;;;;43.13;40.13;;;15.00;77.50;;;;;;5145301;27;20462;-74
2022/05/08 07:19:25;;;;;;;42.63;39.73;;;15.30;76.70;;;;;;5145613;27;20945;-74
2022/05/08 07:21:55;;;;;;;42.33;39.33;;;15.50;76.00;;;;;;5139801;27;20953;-74
2022/05/08 07:24:22;;;;;;;41.73;38.80;;;15.70;75.40;;;;;;5142318;27;20468;-74
2022/05/08 07:26:49;;;;;;;41.20;38.40;;;15.70;75.00;;;;;;5133179;27;20450;-74
2022/05/08 07:29:16;;;;;;;42.20;39.30;;;15.70;75.10;;;;;;5143039;27;20873;-74
2022/05/08 07:31:44;;;;;;;43.97;40.93;;;15.70;75.10;;;;;;5135413;27;21004;-74
2022/05/08 07:39:56;;;;;;;40.80;37.97;;;16.20;73.80;;;;;;5047952;28;20467;-75
2022/05/08 07:42:23;;;;;;;42.10;39.13;;;16.10;73.70;;;;;;5106782;27;20457;-75
2022/05/08 07:44:52;;;;;;;41.77;39.07;;;16.10;73.70;;;;;;5140567;27;20497;-75
2022/05/08 07:47:21;;;;;;;42.87;39.70;;;16.20;73.60;;;;;;5137640;27;20455;-74
2022/05/08 07:49:48;;;;;;;42.97;39.97;;;16.40;73.10;;;;;;5143349;27;20951;-74
2022/05/08 07:52:15;;;;;;;41.33;38.60;;;16.40;72.90;;;;;;5142880;27;20467;-74
2022/05/08 07:54:42;;;;;;;41.07;38.37;;;16.60;72.50;;;;;;5143507;27;20536;-74
2022/05/08 07:57:08;;;;;;;40.83;37.93;;;16.70;72.30;;;;;;5138185;27;20492;-74
2022/05/08 07:59:35;;;;;;;40.77;37.97;;;16.80;71.90;;;;;;5137998;27;21064;-74
2022/05/08 08:02:03;;;;;;;41.17;38.37;;;17.10;71.20;;;;;;5142021;27;20442;-74
2022/05/08 08:04:34;;;;;;;41.77;38.97;;;17.20;70.80;;;;;;5135186;27;20482;-74
2022/05/08 08:07:02;;;;;;;40.00;37.40;;;17.30;70.10;;;;;;5144005;27;20911;-74
2022/05/08 08:09:28;;;;;;;41.30;38.40;;;17.30;70.50;;;;;;5144350;27;20450;-76
2022/05/08 08:11:56;;;;;;;39.57;36.90;;;17.60;69.60;;;;;;5135599;27;20474;-78
2022/05/08 08:14:34;;;;;;;;;;;;;;;;;;;;;
2022/05/08 08:17:01;;;;;;;42.57;39.67;;;17.80;68.90;;;;;;5142205;27;20462;-75
2022/05/08 08:19:29;;;;;;;39.63;36.87;;;17.90;68.80;;;;;;5145805;27;20451;-75
2022/05/08 08:21:59;;;;;;;40.10;37.40;;;18.10;68.40;;;;;;5143662;27;20516;-75
2022/05/08 08:24:27;;;;;;;40.43;37.83;;;18.20;67.90;;;;;;5139487;27;20483;-75
2022/05/08 08:26:56;;;;;;;39.67;37.00;;;18.40;67.20;;;;;;5140333;27;20451;-75
2022/05/08 08:29:23;;;;;;;39.40;36.70;;;18.50;67.20;;;;;;5135333;27;20451;-75
2022/05/08 08:31:50;;;;;;;40.60;37.83;;;18.60;66.90;;;;;;5147184;27;20473;-75
2022/05/08 08:34:17;;;;;;;37.50;35.10;;;18.70;66.70;;;;;;5132249;27;20562;-75
2022/05/08 08:36:44;;;;;;;36.63;34.43;;;18.80;65.90;;;;;;5146229;27;20454;-75
2022/05/08 08:39:12;;;;;;;40.87;38.07;;;19.00;65.90;;;;;;5137968;27;20546;-73
2022/05/08 08:41:43;;;;;;;37.17;34.90;;;19.10;65.00;;;;;;5137394;27;20460;-75
2022/05/08 08:49:52;;;;;;;37.53;35.10;;;19.20;65.00;;;;;;5143084;27;20801;-75
2022/05/08 08:52:21;;;;;;;35.87;33.47;;;19.50;64.20;;;;;;5136425;27;20463;-75
2022/05/08 08:54:50;;;;;;;37.50;35.10;;;19.50;63.90;;;;;;5144624;27;20486;-75
2022/05/08 08:57:21;;;;;;;38.73;36.03;;;19.40;63.90;;;;;;5135316;27;20824;-75
2022/05/08 08:59:48;;;;;;;37.57;35.13;;;19.60;63.50;;;;;;5138652;27;20447;-75
2022/05/08 09:02:27;;;;;;;39.83;37.13;;;19.70;63.20;;;;;;5138843;27;21001;-75
2022/05/08 09:04:55;;;;;;;37.60;34.80;;;19.80;62.90;;;;;;5136222;27;20467;-75
2022/05/08 09:07:42;;;;;;;36.70;34.40;;;19.80;63.10;;;;;;5138104;27;20450;-75
2022/05/08 09:10:14;;;;;;;37.63;34.80;;;19.80;62.90;;;;;;5141372;27;20812;-74
2022/05/08 09:12:42;;;;;;;36.07;33.57;;;19.50;63.10;;;;;;5137662;27;20493;-74
2022/05/08 09:15:23;;;;;;;36.57;34.37;;;19.40;64.00;;;;;;5151273;27;20474;-74
2022/05/08 09:17:52;;;;;;;36.37;33.97;;;19.50;63.40;;;;;;5141518;27;20469;-74
2022/05/08 09:20:28;;;;;;;37.80;35.30;;;19.30;63.60;;;;;;5140643;27;20475;-74
2022/05/08 09:23:08;;;;;;;36.27;33.87;;;19.00;64.50;;;;;;5146998;27;20971;-76
2022/05/08 09:25:51;;;;;;;35.70;33.33;;;19.10;64.50;;;;;;5145074;27;20947;-75
2022/05/08 09:28:20;;;;;;;35.93;33.67;;;19.40;64.30;;;;;;5145691;27;20539;-75
2022/05/08 09:31:02;;;;;;;39.00;36.60;;;19.50;64.00;;;;;;5142950;27;20534;-76
2022/05/08 09:33:31;;;;;;;35.87;33.60;;;19.70;63.70;;;;;;5140865;27;20471;-75
2022/05/08 09:36:00;;;;;;;36.73;34.33;;;19.70;63.80;;;;;;5147672;27;20454;-75
2022/05/08 09:38:50;;;;;;;38.67;36.47;;;19.90;63.70;;;;;;5135603;27;20458;-75
2022/05/08 09:41:21;;;;;;;36.87;34.47;;;20.20;62.10;;;;;;5149113;27;20435;-75
2022/05/08 09:43:50;;;;;;;35.83;33.43;;;20.10;62.20;;;;;;5145513;27;20554;-75
2022/05/08 09:46:20;;;;;;;35.43;33.13;;;20.20;62.30;;;;;;5147605;27;20522;-74
2022/05/08 09:48:47;;;;;;;37.07;34.77;;;20.30;61.80;;;;;;5141408;27;20457;-75
2022/05/08 09:51:16;;;;;;;35.20;33.00;;;20.30;62.00;;;;;;5150215;27;20464;-75
2022/05/08 09:53:44;;;;;;;36.30;33.57;;;20.50;61.60;;;;;;5145308;27;20484;-75
2022/05/08 09:56:12;;;;;;;34.10;32.10;;;20.60;61.10;;;;;;5131807;27;20468;-75
2022/05/08 09:58:41;;;;;;;35.67;33.33;;;20.80;60.00;;;;;;5140737;27;20455;-75
2022/05/08 10:01:08;;;;;;;36.53;34.23;;;20.80;60.40;;;;;;5149040;27;20461;-75
2022/05/08 10:03:36;;;;;;;35.10;33.00;;;20.90;60.00;;;;;;5138597;27;20476;-75
2022/05/08 10:06:03;;;;;;;35.17;32.67;;;21.10;59.40;;;;;;5131631;27;20547;-75
2022/05/08 10:08:34;;;;;;;34.97;32.43;;;21.30;59.00;;;;;;5142774;27;20455;-75
2022/05/08 10:13:54;;;;;;;34.30;32.00;;;21.20;59.30;;;;;;5149696;27;20524;-75
2022/05/08 10:16:49;;;;;;;35.90;33.53;;;21.30;59.40;;;;;;5140399;27;20933;-75
2022/05/08 10:19:53;;;;;;;36.10;33.87;;;21.60;58.70;;;;;;5146062;27;20461;-75
2022/05/08 10:22:20;;;;;;;34.37;32.27;;;21.50;58.40;;;;;;5150377;27;20458;-75
2022/05/08 10:24:51;;;;;;;34.70;32.60;;;21.60;58.90;;;;;;5141150;27;20466;-76
2022/05/08 10:27:23;;;;;;;34.60;32.60;;;21.60;58.50;;;;;;5142980;27;20451;-75
2022/05/08 10:30:26;;;;;;;36.73;34.40;;;21.70;58.70;;;;;;5138876;27;20455;-75
2022/05/08 10:32:55;;;;;;;35.47;33.27;;;21.90;58.80;;;;;;5132698;27;20502;-75
2022/05/08 10:35:25;;;;;;;36.53;34.23;;;22.30;57.40;;;;;;5146982;27;20561;-75
2022/05/08 10:37:53;;;;;;;36.23;33.83;;;22.30;57.10;;;;;;5144062;27;20848;-75
2022/05/08 10:40:37;;;;;;;33.20;31.10;;;21.80;58.20;;;;;;5147957;27;20455;-75
2022/05/08 10:43:32;;;;;;;34.57;32.33;;;21.60;57.70;;;;;;5138150;27;20557;-75
2022/05/08 10:46:24;;;;;;;34.13;32.10;;;21.40;58.50;;;;;;5142338;27;20462;-77
2022/05/08 10:48:54;;;;;;;34.37;32.20;;;21.60;58.30;;;;;;5146650;27;20447;-74
2022/05/08 10:51:22;;;;;;;33.30;30.90;;;21.60;59.10;;;;;;5136203;27;20451;-74
2022/05/08 10:53:50;;;;;;;29.33;27.40;;;21.80;58.70;;;;;;5141281;27;20486;-75
2022/05/08 10:56:17;;;;;;;31.63;29.73;;;21.80;54.60;;;;;;5149448;27;20454;-75
2022/05/08 10:58:53;;;;;;;31.80;29.90;;;22.20;53.70;;;;;;5147744;27;20469;-75
2022/05/08 11:01:21;;;;;;;30.40;28.50;;;22.20;52.40;;;;;;5143516;27;20806;-75
2022/05/08 11:03:48;;;;;;;29.37;27.20;;;22.50;52.30;;;;;;5140581;27;20586;-76
2022/05/08 11:06:22;;;;;;;29.07;27.17;;;22.70;51.70;;;;;;5141726;27;20471;-79
2022/05/08 11:08:49;;;;;;;30.17;28.47;;;22.90;50.80;;;;;;5144118;27;20454;-80
2022/05/08 11:11:16;;;;;;;30.27;28.57;;;23.00;51.30;;;;;;5150214;27;20963;-79
2022/05/08 11:13:46;;;;;;;29.10;27.50;;;23.30;50.90;;;;;;5137764;27;20486;-80
2022/05/08 11:16:27;;;;;;;29.47;27.77;;;23.40;49.50;;;;;;5148728;27;20495;-78
2022/05/08 11:18:59;;;;;;;29.43;27.73;;;23.00;50.50;;;;;;5152027;27;20451;-81
2022/05/08 11:21:27;;;;;;;29.30;27.80;;;22.60;50.60;;;;;;5138182;27;20456;-80
2022/05/08 11:23:55;;;;;;;31.60;29.10;;;22.90;50.60;;;;;;5143726;27;20475;-76
2022/05/08 11:26:28;;;;;;;30.23;28.13;;;23.30;49.90;;;;;;5141566;27;20498;-76
2022/05/08 11:28:57;;;;;;;31.13;29.30;;;23.50;49.50;;;;;;5146271;27;20443;-78
2022/05/08 11:31:28;;;;;;;29.80;28.20;;;23.90;48.80;;;;;;5144481;27;20460;-76
2022/05/08 11:36:45;;;;;;;30.40;28.63;;;23.60;48.30;;;;;;5143502;27;20464;-76
2022/05/08 11:39:14;;;;;;;30.70;28.90;;;23.80;49.10;;;;;;5140390;27;20456;-75
2022/05/08 11:41:44;;;;;;;32.13;30.23;;;24.10;48.50;;;;;;5149746;27;20463;-75
2022/05/08 11:44:23;;;;;;;30.73;28.87;;;23.90;48.30;;;;;;5140005;27;20795;-76
2022/05/08 11:46:51;;;;;;;33.40;31.30;;;24.40;46.90;;;;;;5140484;27;20552;-75
2022/05/08 11:49:20;;;;;;;33.47;31.57;;;23.70;48.30;;;;;;5142463;27;20476;-75
2022/05/08 11:51:49;;;;;;;32.93;31.03;;;23.50;49.50;;;;;;5144208;27;20447;-75
2022/05/08 11:54:23;;;;;;;31.50;29.50;;;24.00;48.40;;;;;;5137515;27;20989;-75
2022/05/08 11:56:52;;;;;;;31.10;29.27;;;23.90;47.60;;;;;;5129566;27;20825;-76
2022/05/08 11:59:21;;;;;;;31.30;29.60;;;23.50;48.90;;;;;;5137924;27;20453;-75
2022/05/08 12:01:50;;;;;;;31.17;29.37;;;23.50;48.40;;;;;;5133300;27;20928;-75
2022/05/08 12:04:26;;;;;;;30.50;28.70;;;23.20;48.60;;;;;;5138552;27;20619;-75
2022/05/08 12:07:03;;;;;;;30.37;28.77;;;23.00;49.80;;;;;;5141037;27;20553;-75
2022/05/08 12:09:33;;;;;;;34.37;32.50;;;23.10;49.70;;;;;;5138366;27;20462;-76
2022/05/08 12:12:26;;;;;;;30.97;28.90;;;23.30;49.30;;;;;;5141367;27;20447;-76
2022/05/08 12:14:54;;;;;;;30.27;28.57;;;23.40;49.40;;;;;;5140672;27;20479;-76
2022/05/08 12:17:24;;;;;;;30.77;29.07;;;23.30;50.00;;;;;;5136282;27;20452;-76
2022/05/08 12:19:58;;;;;;;31.77;29.70;;;23.60;49.90;;;;;;5135641;27;20590;-76
2022/05/08 12:22:28;;;;;;;31.10;29.30;;;23.90;49.20;;;;;;5136704;27;21023;-77
2022/05/08 12:24:58;;;;;;;31.50;29.70;;;24.30;48.00;;;;;;5138989;27;20474;-76
2022/05/08 12:27:25;;;;;;;31.90;30.00;;;24.10;48.40;;;;;;5131310;27;20458;-76
2022/05/08 12:29:53;;;;;;;34.47;32.27;;;24.10;49.10;;;;;;5142233;27;20444;-78
2022/05/08 12:32:24;;;;;;;31.43;29.57;;;24.30;48.30;;;;;;5141727;27;20458;-76
2022/05/08 12:34:53;;;;;;;30.13;28.43;;;24.00;49.10;;;;;;5132906;27;20477;-75
2022/05/08 12:37:21;;;;;;;30.70;29.00;;;23.90;48.90;;;;;;5142868;27;20456;-74
2022/05/08 12:39:50;;;;;;;30.57;28.87;;;23.90;49.00;;;;;;5142753;27;20465;-73
2022/05/08 12:42:17;;;;;;;31.00;29.17;;;24.10;48.50;;;;;;5134830;27;20461;-74
2022/05/08 12:44:44;;;;;;;31.57;29.77;;;24.00;48.90;;;;;;5145451;27;20519;-76
2022/05/08 12:47:12;;;;;;;31.53;29.73;;;23.90;48.80;;;;;;5141787;27;20457;-75
2022/05/08 12:49:41;;;;;;;31.17;29.23;;;23.80;48.80;;;;;;5139090;27;20453;-75
2022/05/08 12:52:10;;;;;;;31.30;29.50;;;23.90;49.10;;;;;;5143889;27;20456;-75
2022/05/08 12:54:38;;;;;;;29.80;28.13;;;23.70;49.30;;;;;;5151476;27;20593;-75
2022/05/08 12:57:08;;;;;;;29.73;28.13;;;23.30;49.70;;;;;;5148688;27;20447;-75
2022/05/08 12:59:46;;;;;;;33.43;31.33;;;23.10;49.70;;;;;;5142581;27;21260;-75
2022/05/08 13:02:14;;;;;;;29.23;27.57;;;23.10;49.70;;;;;;5141698;27;20451;-75
2022/05/08 13:04:45;;;;;;;27.87;26.30;;;23.00;49.30;;;;;;5150311;27;20836;-75
2022/05/08 13:07:12;;;;;;;28.50;26.83;;;23.10;48.30;;;;;;5141979;27;20458;-75
2022/05/08 13:09:40;;;;;;;30.50;28.80;;;23.30;47.40;;;;;;5141279;27;20486;-77
2022/05/08 13:12:09;;;;;;;29.23;27.63;;;23.30;47.50;;;;;;5143005;27;20465;-75